createdAt,value
2023-03-29T00:02:17.814Z,95270.56
2023-03-29T00:04:44.207Z,95272.64
2023-03-29T00:07:10.544Z,95271.48
2023-03-29T00:09:36.951Z,95269.36
2023-03-29T00:12:03.316Z,95272.40
2023-03-29T00:14:29.670Z,95271.94
2023-03-29T00:16:56.112Z,95272.40
2023-03-29T00:19:22.419Z,95273.32
2023-03-29T00:21:48.798Z,95272.52
2023-03-29T00:24:15.181Z,95269.58
2023-03-29T00:26:41.549Z,95266.19
2023-03-29T00:29:07.979Z,95262.91
2023-03-29T00:31:34.415Z,95249.58
2023-03-29T00:34:00.718Z,95252.62
2023-03-29T00:36:27.111Z,95252.95
2023-03-29T00:38:53.472Z,95258.68
2023-03-29T00:41:19.877Z,95254.45
2023-03-29T00:43:46.220Z,95257.48
2023-03-29T00:46:12.662Z,95255.41
2023-03-29T00:48:39.001Z,95260.55
2023-03-29T00:51:05.399Z,95262.39
2023-03-29T00:53:32.733Z,95259.36
2023-03-29T00:55:58.170Z,95249.98
2023-03-29T00:58:24.658Z,95257.70
2023-03-29T01:00:51.121Z,95258.29
2023-03-29T01:03:17.551Z,95256.17
2023-03-29T01:05:43.859Z,95252.44
2023-03-29T01:08:10.202Z,95251.16
2023-03-29T01:10:36.596Z,95261.45
2023-03-29T01:13:02.944Z,95258.05
2023-03-29T01:15:29.345Z,95268.34
2023-03-29T01:17:55.751Z,95265.03
2023-03-29T01:20:22.122Z,95271.12
2023-03-29T01:22:48.453Z,95269.38
2023-03-29T01:25:14.806Z,95272.41
2023-03-29T01:27:41.218Z,95270.30
2023-03-29T01:30:07.580Z,95273.33
2023-03-29T01:32:34.010Z,95269.10
2023-03-29T01:35:00.316Z,95274.73
2023-03-29T01:37:26.757Z,95273.09
2023-03-29T01:39:53.112Z,95280.44
2023-03-29T01:42:19.486Z,95272.35
2023-03-29T01:44:45.815Z,95275.41
2023-03-29T01:47:12.203Z,95272.84
2023-03-29T01:52:23.874Z,95272.47
2023-03-29T01:54:50.272Z,95278.53
2023-03-29T01:57:16.730Z,95276.79
2023-03-29T01:59:43.031Z,95275.14
2023-03-29T02:02:09.458Z,95269.75
2023-03-29T02:04:35.779Z,95279.58
2023-03-29T02:07:02.159Z,95277.92
2023-03-29T02:09:28.576Z,95284.23
2023-03-29T02:11:54.966Z,95284.69
2023-03-29T02:14:21.312Z,95275.44
2023-03-29T02:16:47.718Z,95286.65
2023-03-29T02:19:14.070Z,95288.77
2023-03-29T02:21:40.501Z,95292.16
2023-03-29T02:24:07.869Z,95287.81
2023-03-29T02:26:33.276Z,95288.30
2023-03-29T02:28:59.623Z,95288.30
2023-03-29T02:31:26.053Z,95293.91
2023-03-29T02:33:52.359Z,95292.16
2023-03-29T02:36:18.864Z,95296.02
2023-03-29T02:38:45.166Z,95301.71
2023-03-29T02:41:11.617Z,95299.97
2023-03-29T02:43:37.965Z,95304.65
2023-03-29T02:46:04.346Z,95296.02
2023-03-29T02:48:30.697Z,95301.25
2023-03-29T02:50:57.088Z,95306.39
2023-03-29T02:53:23.439Z,95304.28
2023-03-29T02:55:49.821Z,95307.68
2023-03-29T02:58:16.171Z,95310.95
2023-03-29T03:00:42.569Z,95309.67
2023-03-29T03:03:09.110Z,95308.51
2023-03-29T03:05:35.345Z,95310.50
2023-03-29T03:08:01.722Z,95308.30
2023-03-29T03:10:28.113Z,95311.70
2023-03-29T03:12:54.497Z,95316.84
2023-03-29T03:15:20.891Z,95318.83
2023-03-29T03:17:47.349Z,95319.29
2023-03-29T03:20:13.757Z,95325.72
2023-03-29T03:22:40.054Z,95323.52
2023-03-29T03:25:06.441Z,95320.95
2023-03-29T03:27:32.800Z,95326.34
2023-03-29T03:29:59.196Z,95326.00
2023-03-29T03:32:25.577Z,95328.08
2023-03-29T03:34:51.940Z,95281.30
2023-03-29T03:37:18.303Z,95334.05
2023-03-29T03:39:44.682Z,95330.93
2023-03-29T03:42:11.098Z,95336.87
2023-03-29T03:44:37.476Z,95332.55
2023-03-29T03:47:03.823Z,95332.09
2023-03-29T03:49:30.212Z,95333.62
2023-03-29T03:51:56.553Z,95327.51
2023-03-29T03:54:22.952Z,95338.88
2023-03-29T03:56:49.321Z,95337.86
2023-03-29T03:59:15.688Z,95336.64
2023-03-29T04:01:42.041Z,95341.45
2023-03-29T04:04:08.531Z,95343.47
2023-03-29T04:06:34.830Z,95349.54
2023-03-29T04:09:01.221Z,95348.65
2023-03-29T04:11:27.566Z,95353.34
2023-03-29T04:13:53.964Z,95357.81
2023-03-29T04:16:20.444Z,95361.92
2023-03-29T04:18:46.881Z,95363.08
2023-03-29T04:21:13.188Z,95366.61
2023-03-29T04:23:39.590Z,95371.75
2023-03-29T04:26:05.940Z,95372.30
2023-03-29T04:28:32.343Z,95367.44
2023-03-29T04:30:58.705Z,95374.84
2023-03-29T04:33:25.074Z,95370.09
2023-03-29T04:35:51.444Z,95371.57
2023-03-29T04:40:15.910Z,95372.42
2023-03-29T04:42:42.314Z,95374.87
2023-03-29T04:45:08.689Z,95382.39
2023-03-29T04:47:35.143Z,95381.50
2023-03-29T04:50:01.467Z,95383.19
2023-03-29T04:52:27.850Z,95384.11
2023-03-29T04:54:54.208Z,95389.53
2023-03-29T04:57:20.681Z,95392.56
2023-03-29T04:59:46.961Z,95392.10
2023-03-29T05:02:13.386Z,95397.04
2023-03-29T05:04:39.776Z,95381.04
2023-03-29T05:07:06.128Z,95403.35
2023-03-29T05:09:35.029Z,95409.70
2023-03-29T05:11:58.885Z,95411.32
2023-03-29T05:14:25.245Z,95410.77
2023-03-29T05:16:51.642Z,95424.10
2023-03-29T05:19:17.985Z,95428.34
2023-03-29T05:21:45.608Z,95430.42
2023-03-29T05:24:10.735Z,95437.01
2023-03-29T05:26:37.124Z,95442.89
2023-03-29T05:29:03.485Z,95440.32
2023-03-29T05:31:29.909Z,95441.05
2023-03-29T05:33:56.416Z,95452.40
2023-03-29T05:36:22.810Z,95454.98
2023-03-29T05:38:49.179Z,95456.41
2023-03-29T05:41:15.592Z,95459.81
2023-03-29T05:43:41.964Z,95468.95
2023-03-29T05:46:08.355Z,95464.08
2023-03-29T05:48:34.696Z,95471.07
2023-03-29T05:51:01.220Z,95467.36
2023-03-29T05:53:27.461Z,95471.93
2023-03-29T05:55:53.847Z,95476.28
2023-03-29T05:58:20.278Z,95478.16
2023-03-29T06:00:46.634Z,95473.70
2023-03-29T06:03:18.032Z,95477.81
2023-03-29T06:05:39.417Z,95476.41
2023-03-29T06:08:05.789Z,95472.20
2023-03-29T06:10:32.187Z,95473.88
2023-03-29T06:12:58.540Z,95471.33
2023-03-29T06:15:24.938Z,95477.53
2023-03-29T06:17:51.344Z,95473.23
2023-03-29T06:20:17.718Z,95478.19
2023-03-29T06:22:44.080Z,95494.02
2023-03-29T06:25:10.462Z,95480.58
2023-03-29T06:27:36.840Z,95487.17
2023-03-29T06:30:03.232Z,95488.72
2023-03-29T06:32:29.615Z,95490.84
2023-03-29T06:34:55.990Z,95485.08
2023-03-29T06:37:22.406Z,95498.35
2023-03-29T06:39:49.536Z,95503.27
2023-03-29T06:42:21.068Z,95504.34
2023-03-29T06:44:41.546Z,95506.45
2023-03-29T06:47:07.906Z,95513.88
2023-03-29T06:49:34.368Z,95512.83
2023-03-29T06:52:00.714Z,95516.55
2023-03-29T06:54:27.116Z,95521.48
2023-03-29T06:56:53.490Z,95522.57
2023-03-29T06:59:19.880Z,95511.25
2023-03-29T07:01:46.386Z,95510.27
2023-03-29T07:04:12.681Z,95504.66
2023-03-29T07:06:39.056Z,95508.15
2023-03-29T07:09:05.451Z,95499.34
2023-03-29T07:11:31.795Z,95502.14
2023-03-29T07:13:58.201Z,95498.05
2023-03-29T07:16:24.648Z,95489.80
2023-03-29T07:18:50.982Z,95471.13
2023-03-29T07:21:17.332Z,95474.40
2023-03-29T07:23:43.728Z,95505.39
2023-03-29T07:26:10.091Z,95500.81
2023-03-29T07:28:36.504Z,95495.08
2023-03-29T07:31:03.028Z,95488.81
2023-03-29T07:33:29.381Z,95488.48
2023-03-29T07:35:55.702Z,95497.19
2023-03-29T07:38:22.142Z,95497.19
2023-03-29T07:40:48.500Z,95488.52
2023-03-29T07:43:14.895Z,95478.98
2023-03-29T07:45:41.278Z,95492.72
2023-03-29T07:48:07.767Z,95483.35
2023-03-29T07:50:34.066Z,95486.73
2023-03-29T07:53:00.463Z,95489.67
2023-03-29T07:55:26.807Z,95480.97
2023-03-29T07:57:53.267Z,95480.14
2023-03-29T08:00:19.720Z,95459.72
2023-03-29T08:02:46.129Z,95475.24
2023-03-29T08:05:12.444Z,95465.94
2023-03-29T08:07:38.820Z,95461.05
2023-03-29T08:10:05.174Z,95463.91
2023-03-29T08:12:31.578Z,95463.91
2023-03-29T08:14:57.974Z,95454.39
2023-03-29T08:17:24.358Z,95461.53
2023-03-29T08:19:52.438Z,95457.19
2023-03-29T08:22:17.137Z,95447.67
2023-03-29T08:24:43.503Z,95430.17
2023-03-29T08:27:09.894Z,95430.17
2023-03-29T08:29:36.242Z,95444.97
2023-03-29T08:32:02.764Z,95426.89
2023-03-29T08:34:29.141Z,95426.89
2023-03-29T08:36:55.526Z,95460.21
2023-03-29T08:39:21.887Z,95452.14
2023-03-29T08:41:48.322Z,95420.06
2023-03-29T08:44:14.680Z,95445.77
2023-03-29T08:46:41.212Z,95456.23
2023-03-29T08:49:07.521Z,95456.23
2023-03-29T08:51:33.924Z,95452.74
2023-03-29T08:54:00.291Z,95459.77
2023-03-29T08:56:26.690Z,95459.77
2023-03-29T08:58:53.097Z,95440.95
2023-03-29T09:01:19.569Z,95440.95
2023-03-29T09:03:46.049Z,95440.15
2023-03-29T09:06:12.358Z,95435.44
2023-03-29T09:08:38.697Z,95439.33
2023-03-29T09:11:05.079Z,95430.17
2023-03-29T09:13:31.447Z,95430.17
2023-03-29T09:15:57.836Z,95423.86
2023-03-29T09:18:24.173Z,95404.48
2023-03-29T09:20:50.592Z,95432.18
2023-03-29T09:23:17.116Z,95446.39
2023-03-29T09:25:52.608Z,95425.03
2023-03-29T09:28:09.803Z,95409.76
2023-03-29T09:30:36.193Z,95420.16
2023-03-29T09:33:02.590Z,95409.48
2023-03-29T09:35:28.962Z,95415.39
2023-03-29T09:37:55.287Z,95415.39
2023-03-29T09:40:21.683Z,95416.45
2023-03-29T09:42:48.025Z,95422.77
